Time;durP1;ratioP1;P1;durP2;ratioP2;P2;SDS_P1;SDS_P2;PMS_P1;PMS_P2;Temp;Humidity;BMP_temperature;BMP_pressure;BME280_temperature;BME280_humidity;BME280_pressure;Samples;Min_cycle;Max_cycle;Signal;HPM_P1;HPM_P2
2022/03/13 00:00:54;;;;;;;20.63;18.35;;;7.90;99.90;;;;;;5042666;28;20606;-54
2022/03/13 00:03:21;;;;;;;24.55;18.00;;;7.80;99.90;;;;;;4983401;28;20501;-53
2022/03/13 00:05:50;;;;;;;24.55;17.63;;;7.80;99.90;;;;;;5014142;28;20049;-54
2022/03/13 00:08:25;;;;;;;20.17;17.40;;;7.80;99.90;;;;;;5037323;28;20120;-52
2022/03/13 00:11:03;;;;;;;23.70;18.95;;;7.70;99.90;;;;;;5025774;28;20045;-54
2022/03/13 00:13:32;;;;;;;21.40;18.65;;;7.70;99.90;;;;;;5044104;28;20045;-53
2022/03/13 00:16:08;;;;;;;21.00;18.33;;;7.70;99.90;;;;;;5044911;28;20392;-53
2022/03/13 00:18:44;;;;;;;22.00;18.55;;;7.60;99.90;;;;;;5046438;28;20054;-53
2022/03/13 00:21:10;;;;;;;24.50;18.33;;;7.60;99.90;;;;;;5045811;28;20053;-53
2022/03/13 00:23:36;;;;;;;21.65;18.98;;;7.60;99.90;;;;;;5044949;28;20048;-51
2022/03/13 00:26:04;;;;;;;23.00;18.30;;;7.50;99.90;;;;;;5046586;28;20053;-54
2022/03/13 00:28:30;;;;;;;22.38;17.60;;;7.50;99.90;;;;;;5044888;28;20055;-52
2022/03/13 00:31:01;;;;;;;25.23;19.37;;;7.50;99.90;;;;;;5013147;28;20128;-52
2022/03/13 00:33:28;;;;;;;21.63;17.73;;;7.50;99.90;;;;;;5045969;28;20049;-52
2022/03/13 00:35:54;;;;;;;24.00;19.48;;;7.40;99.90;;;;;;5044867;28;20072;-51
2022/03/13 00:38:22;;;;;;;22.77;18.95;;;7.40;99.90;;;;;;5045842;28;20484;-51
2022/03/13 00:40:51;;;;;;;23.42;18.42;;;7.40;99.90;;;;;;5045902;28;20106;-53
2022/03/13 00:43:19;;;;;;;23.95;17.48;;;7.40;99.90;;;;;;5044960;28;20052;-50
2022/03/13 00:45:46;;;;;;;22.55;17.27;;;7.40;99.90;;;;;;5025897;28;20053;-54
2022/03/13 00:48:12;;;;;;;21.83;18.95;;;7.40;99.90;;;;;;5041153;28;20084;-55
2022/03/13 00:50:39;;;;;;;21.25;18.45;;;7.40;99.90;;;;;;5026645;28;20041;-53
2022/03/13 00:53:05;;;;;;;21.80;18.27;;;7.40;99.90;;;;;;5008198;28;20136;-54
2022/03/13 00:55:32;;;;;;;23.17;18.15;;;7.40;99.90;;;;;;5041002;28;20049;-52
2022/03/13 00:57:58;;;;;;;20.48;18.15;;;7.40;99.90;;;;;;5045723;28;20049;-53
2022/03/13 01:00:24;;;;;;;21.33;18.33;;;7.40;99.90;;;;;;5045686;28;20045;-54
2022/03/13 01:02:50;;;;;;;22.00;18.55;;;7.40;99.90;;;;;;5046246;28;20492;-53
2022/03/13 01:05:21;;;;;;;22.70;18.42;;;7.40;99.90;;;;;;5045918;28;20045;-54
2022/03/13 01:07:48;;;;;;;23.35;19.05;;;7.40;99.90;;;;;;5044341;28;20091;-54
2022/03/13 01:10:14;;;;;;;22.10;18.27;;;7.30;99.90;;;;;;5044508;28;20045;-54
2022/03/13 01:12:41;;;;;;;22.45;19.15;;;7.40;99.90;;;;;;5044509;28;20086;-52
2022/03/13 01:15:08;;;;;;;23.35;19.70;;;7.40;99.90;;;;;;5044012;28;20057;-58
2022/03/13 01:17:34;;;;;;;20.60;17.98;;;7.40;99.90;;;;;;5010766;28;20543;-58
2022/03/13 01:20:02;;;;;;;25.05;19.05;;;7.40;99.90;;;;;;5044155;28;20131;-57
2022/03/13 01:22:29;;;;;;;23.00;18.05;;;7.40;99.90;;;;;;5043446;28;20048;-58
2022/03/13 01:24:55;;;;;;;21.13;18.67;;;7.30;99.90;;;;;;5043312;28;20048;-60
2022/03/13 01:27:22;;;;;;;23.67;19.13;;;7.30;99.90;;;;;;5026606;28;20053;-58
2022/03/13 01:29:49;;;;;;;22.27;18.98;;;7.40;99.90;;;;;;5045072;28;20400;-59
2022/03/13 01:32:18;;;;;;;21.60;18.95;;;7.30;99.90;;;;;;5044834;28;20059;-58
2022/03/13 01:34:45;;;;;;;23.27;19.52;;;7.30;99.90;;;;;;5044897;28;20049;-58
2022/03/13 01:37:18;;;;;;;23.73;20.10;;;7.30;99.90;;;;;;5059684;28;20123;-58
2022/03/13 01:39:44;;;;;;;22.10;19.60;;;7.30;99.90;;;;;;5043243;28;20052;-58
2022/03/13 01:42:10;;;;;;;23.17;19.27;;;7.30;99.90;;;;;;5042855;28;20049;-59
2022/03/13 01:44:37;;;;;;;22.02;18.50;;;7.30;99.90;;;;;;5044986;28;20421;-58
2022/03/13 01:47:05;;;;;;;21.50;19.10;;;7.20;99.90;;;;;;5044077;28;20075;-58
2022/03/13 01:49:31;;;;;;;21.70;18.08;;;7.30;99.90;;;;;;5044091;28;20160;-59
2022/03/13 01:51:58;;;;;;;23.38;19.23;;;7.20;99.90;;;;;;5043345;28;20048;-58
2022/03/13 01:54:24;;;;;;;22.85;19.23;;;7.30;99.90;;;;;;5044353;28;20044;-59
2022/03/13 01:56:50;;;;;;;24.25;19.65;;;7.30;99.90;;;;;;5043982;28;20570;-58
2022/03/13 01:59:17;;;;;;;22.23;18.65;;;7.30;99.90;;;;;;5042742;28;20421;-53
2022/03/13 02:01:44;;;;;;;22.77;19.35;;;7.40;99.90;;;;;;5044944;28;20045;-52
2022/03/13 02:04:12;;;;;;;24.52;20.00;;;7.40;99.90;;;;;;5044649;28;20511;-51
2022/03/13 02:06:39;;;;;;;23.00;19.80;;;7.40;99.90;;;;;;5045206;28;20068;-53
2022/03/13 02:09:07;;;;;;;23.33;19.80;;;7.40;99.90;;;;;;5044742;28;20044;-54
2022/03/13 02:11:40;;;;;;;23.50;19.80;;;7.40;99.90;;;;;;5043424;28;20124;-53
2022/03/13 02:14:08;;;;;;;22.05;18.83;;;7.30;99.90;;;;;;5043107;28;20710;-53
2022/03/13 02:16:35;;;;;;;23.15;18.67;;;7.30;99.90;;;;;;4994242;28;20124;-53
2022/03/13 02:19:02;;;;;;;22.70;19.15;;;7.30;99.90;;;;;;5043874;28;20567;-54
2022/03/13 02:21:31;;;;;;;23.83;19.60;;;7.20;99.90;;;;;;5043892;28;20052;-52
2022/03/13 02:24:02;;;;;;;23.63;19.88;;;7.20;99.90;;;;;;5044053;28;20721;-50
2022/03/13 02:26:32;;;;;;;24.30;19.33;;;7.20;99.90;;;;;;5043717;28;20045;-52
2022/03/13 02:28:59;;;;;;;23.73;18.55;;;7.10;99.90;;;;;;5044149;28;20124;-52
2022/03/13 02:31:32;;;;;;;23.67;19.30;;;7.00;99.90;;;;;;5043306;28;20131;-53
2022/03/13 02:34:00;;;;;;;22.30;19.65;;;7.00;99.90;;;;;;5044228;28;20078;-54
2022/03/13 02:36:32;;;;;;;24.40;19.38;;;7.00;99.90;;;;;;5061316;28;20048;-52
2022/03/13 02:38:58;;;;;;;;;;;6.90;99.90;;;;;;5046299;28;20058;-54
2022/03/13 02:41:27;;;;;;;25.08;21.23;;;6.90;99.90;;;;;;5030983;28;20447;-54
2022/03/13 02:43:54;;;;;;;21.67;18.35;;;6.80;99.90;;;;;;5008850;28;20052;-52
2022/03/13 02:46:22;;;;;;;22.58;18.83;;;6.90;99.90;;;;;;5043313;28;20037;-53
2022/03/13 02:48:50;;;;;;;23.58;19.27;;;6.90;99.90;;;;;;5041564;28;20186;-55
2022/03/13 02:51:17;;;;;;;26.25;19.75;;;6.90;99.90;;;;;;5041479;28;20446;-50
2022/03/13 02:53:44;;;;;;;22.15;19.20;;;6.90;99.90;;;;;;5043545;28;20123;-53
2022/03/13 02:56:10;;;;;;;23.35;20.48;;;6.90;99.90;;;;;;5042552;28;20049;-55
2022/03/13 02:58:37;;;;;;;23.48;19.85;;;6.90;99.90;;;;;;5042347;28;20057;-54
2022/03/13 03:05:37;;;;;;;24.10;20.25;;;6.80;99.90;;;;;;5024206;28;20063;-58
2022/03/13 03:08:04;;;;;;;25.48;20.77;;;6.70;99.90;;;;;;5006223;28;20045;-55
2022/03/13 03:10:32;;;;;;;24.42;20.52;;;6.60;99.90;;;;;;5038505;28;20077;-53
2022/03/13 03:12:58;;;;;;;22.83;20.33;;;6.60;99.90;;;;;;5015927;28;20068;-53
2022/03/13 03:15:25;;;;;;;24.10;19.45;;;6.70;99.90;;;;;;5043156;28;20044;-58
2022/03/13 03:17:53;;;;;;;23.88;19.65;;;6.70;99.90;;;;;;5042760;28;20119;-59
2022/03/13 03:20:20;;;;;;;23.45;19.55;;;6.60;99.90;;;;;;5024916;28;20041;-58
2022/03/13 03:22:47;;;;;;;23.30;19.90;;;6.60;99.90;;;;;;5042982;28;20036;-59
2022/03/13 03:25:13;;;;;;;21.73;19.52;;;6.60;99.90;;;;;;5043093;28;20045;-59
2022/03/13 03:27:40;;;;;;;26.02;20.30;;;6.60;99.90;;;;;;5042993;28;20377;-54
2022/03/13 03:30:09;;;;;;;26.67;19.95;;;6.50;99.90;;;;;;5043140;28;20080;-49
2022/03/13 03:32:35;;;;;;;25.38;19.42;;;6.50;99.90;;;;;;5041113;28;20057;-53
2022/03/13 03:35:01;;;;;;;24.35;20.33;;;6.50;99.90;;;;;;5041251;28;20083;-53
2022/03/13 03:37:32;;;;;;;24.23;20.27;;;6.50;99.90;;;;;;5041931;28;20045;-53
2022/03/13 03:39:58;;;;;;;22.65;19.92;;;6.40;99.90;;;;;;5043242;28;20084;-59
2022/03/13 03:42:24;;;;;;;22.10;18.50;;;6.40;99.90;;;;;;5042917;28;20147;-54
2022/03/13 03:44:50;;;;;;;22.33;19.15;;;6.40;99.90;;;;;;5042611;28;20084;-50
2022/03/13 03:47:16;;;;;;;23.95;19.67;;;6.30;99.90;;;;;;5044190;28;20548;-59
2022/03/13 03:49:42;;;;;;;22.88;20.35;;;6.30;99.90;;;;;;5046836;28;20056;-59
2022/03/13 03:52:09;;;;;;;25.83;20.05;;;6.30;99.90;;;;;;5046819;28;20053;-59
2022/03/13 03:54:35;;;;;;;25.58;20.27;;;6.20;99.90;;;;;;5045673;28;20064;-52
2022/03/13 03:57:05;;;;;;;22.98;19.55;;;6.20;99.90;;;;;;5046198;28;20037;-53
2022/03/13 03:59:31;;;;;;;23.20;19.60;;;6.10;99.90;;;;;;5029592;28;20676;-53
2022/03/13 04:01:57;;;;;;;22.38;19.38;;;6.10;99.90;;;;;;5045924;28;20053;-54
2022/03/13 04:04:23;;;;;;;25.38;19.17;;;6.10;99.90;;;;;;5046457;28;20399;-53
2022/03/13 04:06:50;;;;;;;23.02;19.38;;;6.10;99.90;;;;;;5044895;28;20078;-54
2022/03/13 04:09:16;;;;;;;25.77;20.88;;;6.10;99.90;;;;;;5046351;28;20404;-51
2022/03/13 04:11:43;;;;;;;21.98;19.65;;;6.10;99.90;;;;;;5044827;28;20059;-54
2022/03/13 04:14:09;;;;;;;23.02;19.13;;;6.10;99.90;;;;;;5044866;28;20512;-52
2022/03/13 04:16:36;;;;;;;24.00;20.20;;;6.10;99.90;;;;;;5046200;28;20041;-52
2022/03/13 04:19:02;;;;;;;24.48;19.58;;;6.00;99.90;;;;;;5046307;28;20492;-53
2022/03/13 04:21:28;;;;;;;22.35;18.88;;;6.10;99.90;;;;;;5045666;28;20446;-54
2022/03/13 04:23:54;;;;;;;25.60;20.73;;;6.00;99.90;;;;;;5044228;28;20063;-55
2022/03/13 04:26:25;;;;;;;22.63;20.20;;;6.00;99.90;;;;;;5045951;28;20053;-52
2022/03/13 04:28:51;;;;;;;20.90;18.70;;;6.00;99.90;;;;;;5045928;28;20048;-54
2022/03/13 04:31:18;;;;;;;22.45;18.92;;;6.00;99.90;;;;;;5045450;28;20103;-59
2022/03/13 04:33:47;;;;;;;24.00;19.85;;;5.90;99.90;;;;;;5046467;28;20049;-59
2022/03/13 04:36:13;;;;;;;23.58;19.85;;;5.90;99.90;;;;;;5045932;28;20107;-53
2022/03/13 04:38:41;;;;;;;23.85;19.42;;;5.90;99.90;;;;;;5027898;28;20404;-53
2022/03/13 04:41:07;;;;;;;25.92;20.42;;;5.90;99.90;;;;;;5045944;28;20057;-59
2022/03/13 04:43:35;;;;;;;25.98;20.85;;;5.80;99.90;;;;;;5045107;28;20138;-59
2022/03/13 04:46:01;;;;;;;24.95;19.38;;;5.80;99.90;;;;;;5045263;28;20496;-59
2022/03/13 04:48:28;;;;;;;24.33;19.63;;;5.80;99.90;;;;;;5046009;28;20045;-59
2022/03/13 04:50:54;;;;;;;22.67;18.77;;;5.80;99.90;;;;;;5044445;28;20045;-59
2022/03/13 04:53:20;;;;;;;25.85;20.60;;;5.70;99.90;;;;;;5044343;28;20373;-59
2022/03/13 04:55:46;;;;;;;23.92;19.42;;;5.60;99.90;;;;;;5044202;28;20743;-59
2022/03/13 04:58:12;;;;;;;25.02;20.45;;;5.50;99.90;;;;;;5044128;28;20048;-59
2022/03/13 05:00:39;;;;;;;27.52;21.63;;;5.40;99.90;;;;;;5044024;28;20128;-59
2022/03/13 05:03:07;;;;;;;22.35;19.92;;;5.30;99.90;;;;;;5044131;28;20071;-58
2022/03/13 05:05:34;;;;;;;23.73;19.98;;;5.30;99.90;;;;;;5026560;28;20060;-59
2022/03/13 05:08:02;;;;;;;24.75;19.25;;;5.20;99.90;;;;;;5045428;28;20381;-59
2022/03/13 05:10:35;;;;;;;24.63;20.17;;;5.20;99.90;;;;;;5043644;28;20212;-59
2022/03/13 05:13:05;;;;;;;26.45;20.02;;;5.20;99.90;;;;;;5045356;28;20546;-59
2022/03/13 05:15:32;;;;;;;23.27;19.63;;;5.20;99.90;;;;;;5043082;28;20134;-59
2022/03/13 05:17:58;;;;;;;23.48;18.52;;;5.20;99.90;;;;;;5043919;28;20080;-59
2022/03/13 05:20:24;;;;;;;22.40;18.80;;;5.20;99.90;;;;;;5042532;28;20543;-59
2022/03/13 05:22:50;;;;;;;23.70;18.80;;;5.20;99.90;;;;;;5045355;28;20045;-59
2022/03/13 05:25:16;;;;;;;23.63;19.35;;;5.20;99.90;;;;;;5044631;28;20088;-58
2022/03/13 05:27:43;;;;;;;22.95;18.55;;;5.20;99.90;;;;;;5044736;28;20595;-59
2022/03/13 05:30:10;;;;;;;21.92;18.52;;;5.20;99.90;;;;;;5043086;28;20072;-59
2022/03/13 05:32:36;;;;;;;22.83;18.80;;;5.20;99.90;;;;;;5043269;28;20069;-59
2022/03/13 05:35:03;;;;;;;25.00;18.75;;;5.20;99.90;;;;;;5044884;28;20075;-59
2022/03/13 05:37:29;;;;;;;26.77;17.90;;;5.20;99.90;;;;;;5043174;28;20433;-60
2022/03/13 05:39:56;;;;;;;38.13;18.23;;;5.30;99.90;;;;;;5043619;28;20052;-59
2022/03/13 05:42:26;;;;;;;24.60;19.98;;;5.30;99.90;;;;;;5042830;28;20086;-59
2022/03/13 05:44:52;;;;;;;22.60;19.23;;;5.30;99.90;;;;;;5045241;28;20657;-59
2022/03/13 05:47:19;;;;;;;22.92;19.52;;;5.30;99.90;;;;;;5043098;28;20507;-59
2022/03/13 05:49:46;;;;;;;22.50;18.70;;;5.30;99.90;;;;;;5043790;28;20052;-59
2022/03/13 05:52:13;;;;;;;21.70;18.00;;;5.40;99.90;;;;;;5044643;28;20060;-60
2022/03/13 05:54:40;;;;;;;25.10;19.48;;;5.30;99.90;;;;;;5043557;28;20056;-60
2022/03/13 05:57:07;;;;;;;21.90;17.65;;;5.30;99.90;;;;;;5043589;28;20142;-60
2022/03/13 05:59:35;;;;;;;19.38;17.23;;;5.30;99.90;;;;;;5042709;28;20049;-59
2022/03/13 06:02:03;;;;;;;20.55;17.48;;;5.30;99.90;;;;;;5043139;28;20055;-59
2022/03/13 06:04:30;;;;;;;19.88;17.67;;;5.30;99.90;;;;;;5026680;28;20159;-60
2022/03/13 06:06:56;;;;;;;20.30;16.88;;;5.40;99.90;;;;;;5043207;28;20453;-60
2022/03/13 06:09:22;;;;;;;23.27;17.30;;;5.40;99.90;;;;;;5042260;28;20543;-59
2022/03/13 06:11:48;;;;;;;22.35;17.00;;;5.50;99.90;;;;;;5025185;28;20045;-58
2022/03/13 06:14:14;;;;;;;22.48;17.95;;;5.50;99.90;;;;;;5043883;28;20482;-60
2022/03/13 06:16:40;;;;;;;22.45;15.32;;;5.60;99.90;;;;;;5044373;28;20159;-59
2022/03/13 06:19:06;;;;;;;21.88;16.02;;;5.60;99.90;;;;;;5042434;28;20049;-60
2022/03/13 06:21:32;;;;;;;22.58;17.13;;;5.60;99.90;;;;;;5043661;28;20049;-59
2022/03/13 06:23:59;;;;;;;20.85;17.00;;;5.60;99.90;;;;;;5010095;28;20712;-60
2022/03/13 06:26:25;;;;;;;21.00;15.98;;;5.60;99.90;;;;;;5042539;28;20500;-60
2022/03/13 06:28:53;;;;;;;20.42;14.77;;;5.60;99.90;;;;;;5042325;28;20056;-59
2022/03/13 06:31:19;;;;;;;21.05;17.52;;;5.70;99.90;;;;;;5043173;28;20065;-59
2022/03/13 06:33:45;;;;;;;19.85;15.63;;;5.70;99.90;;;;;;5044868;28;20425;-59
2022/03/13 06:36:12;;;;;;;20.33;16.65;;;5.70;99.90;;;;;;5042434;28;20076;-60
2022/03/13 06:38:38;;;;;;;19.02;15.80;;;5.70;99.90;;;;;;5042537;28;20044;-60
2022/03/13 06:41:04;;;;;;;20.77;16.35;;;5.80;99.90;;;;;;5041771;28;20106;-60
2022/03/13 06:43:31;;;;;;;24.42;16.08;;;5.90;99.90;;;;;;5025158;28;20088;-60
2022/03/13 06:45:57;;;;;;;18.10;15.57;;;5.90;99.90;;;;;;5044328;28;20044;-60
2022/03/13 06:48:26;;;;;;;18.70;15.90;;;6.00;99.90;;;;;;5041719;28;20474;-60
2022/03/13 06:50:53;;;;;;;20.05;16.05;;;6.00;99.90;;;;;;5043713;28;20056;-59
2022/03/13 06:53:19;;;;;;;19.35;15.45;;;6.10;99.90;;;;;;5026229;28;20055;-59
2022/03/13 06:55:46;;;;;;;19.52;15.88;;;6.10;99.90;;;;;;5025906;28;20087;-60
2022/03/13 06:58:12;;;;;;;17.80;15.88;;;6.20;99.90;;;;;;5042171;28;20194;-61
2022/03/13 07:00:38;;;;;;;18.42;15.02;;;6.30;99.90;;;;;;5042469;28;20041;-60
2022/03/13 07:03:05;;;;;;;20.13;15.95;;;6.40;99.90;;;;;;5044000;28;20041;-59
2022/03/13 07:05:31;;;;;;;18.20;15.20;;;6.40;99.90;;;;;;5042381;28;20161;-59
2022/03/13 07:07:58;;;;;;;19.25;15.05;;;6.50;99.90;;;;;;5043735;28;20055;-59
2022/03/13 07:10:24;;;;;;;18.23;15.20;;;6.60;99.90;;;;;;5025171;28;20404;-60
2022/03/13 07:12:50;;;;;;;19.92;15.25;;;6.70;99.90;;;;;;5041894;28;20060;-60
2022/03/13 07:15:18;;;;;;;18.10;15.48;;;6.80;99.90;;;;;;5043529;28;20877;-60
2022/03/13 07:17:45;;;;;;;17.40;15.25;;;6.90;99.90;;;;;;5041286;28;20053;-59
2022/03/13 07:20:11;;;;;;;19.15;15.30;;;7.00;99.90;;;;;;5043020;28;20109;-59
2022/03/13 07:22:38;;;;;;;18.20;13.65;;;7.10;99.90;;;;;;5041586;28;20111;-60
2022/03/13 07:25:05;;;;;;;20.60;15.82;;;7.20;99.90;;;;;;5042058;28;20049;-58
2022/03/13 07:27:31;;;;;;;20.20;14.88;;;7.30;99.90;;;;;;5041337;28;20066;-57
2022/03/13 07:29:57;;;;;;;19.50;15.05;;;7.30;99.90;;;;;;5042858;28;20049;-57
2022/03/13 07:32:24;;;;;;;16.88;15.02;;;7.40;99.90;;;;;;5041480;28;20053;-58
2022/03/13 07:34:50;;;;;;;17.02;13.57;;;7.60;99.90;;;;;;5043694;28;20498;-57
2022/03/13 07:37:17;;;;;;;18.15;14.65;;;7.70;99.90;;;;;;5025567;28;20053;-57
2022/03/13 07:39:47;;;;;;;18.05;14.25;;;7.90;99.90;;;;;;5024700;28;20049;-58
2022/03/13 07:42:16;;;;;;;18.08;15.90;;;8.20;99.90;;;;;;5043234;28;20055;-58
2022/03/13 07:44:43;;;;;;;17.90;14.90;;;8.60;99.90;;;;;;5041618;28;20060;-58
2022/03/13 07:47:09;;;;;;;19.25;13.82;;;9.00;99.90;;;;;;5042327;28;20348;-58
2022/03/13 07:49:36;;;;;;;16.88;14.18;;;9.30;99.90;;;;;;5043169;28;20045;-58
2022/03/13 07:52:02;;;;;;;16.20;13.18;;;9.50;99.90;;;;;;5041629;28;20526;-58
2022/03/13 07:54:28;;;;;;;17.77;14.60;;;9.50;99.90;;;;;;5043155;28;20397;-57
2022/03/13 07:56:54;;;;;;;15.68;13.13;;;9.60;99.90;;;;;;5024682;28;20523;-58
2022/03/13 07:59:20;;;;;;;16.25;13.38;;;9.60;99.90;;;;;;5041060;28;20083;-58
2022/03/13 08:01:48;;;;;;;15.73;13.40;;;9.60;99.90;;;;;;5041714;28;20505;-58
2022/03/13 08:04:14;;;;;;;18.20;14.65;;;9.50;99.90;;;;;;5042149;28;20053;-58
2022/03/13 08:06:40;;;;;;;16.35;13.98;;;9.40;99.90;;;;;;5041645;28;20043;-58
2022/03/13 08:09:07;;;;;;;18.42;13.90;;;9.40;99.90;;;;;;5058682;28;20523;-58
2022/03/13 08:11:38;;;;;;;18.73;14.30;;;9.50;99.90;;;;;;5042856;28;20049;-58
2022/03/13 08:14:12;;;;;;;14.68;13.13;;;9.70;99.90;;;;;;5041856;28;20519;-58
2022/03/13 08:16:38;;;;;;;16.95;13.48;;;9.90;99.90;;;;;;5042212;28;20053;-58
2022/03/13 08:19:05;;;;;;;18.20;13.60;;;10.20;96.70;;;;;;5042158;28;20044;-58
2022/03/13 08:21:32;;;;;;;14.90;13.30;;;10.50;90.00;;;;;;5042039;28;20050;-58
2022/03/13 08:23:58;;;;;;;16.00;13.77;;;10.90;84.50;;;;;;5041342;28;20486;-58
2022/03/13 08:26:26;;;;;;;19.08;13.75;;;11.30;77.00;;;;;;5040795;28;20052;-58
2022/03/13 08:28:52;;;;;;;14.50;12.70;;;11.30;65.60;;;;;;5040769;28;20519;-58
2022/03/13 08:31:18;;;;;;;15.45;12.93;;;11.50;64.40;;;;;;5042010;28;20208;-58
2022/03/13 08:33:45;;;;;;;17.25;13.23;;;11.90;63.30;;;;;;5025067;28;20293;-58
2022/03/13 08:36:12;;;;;;;16.15;13.18;;;12.40;60.90;;;;;;5044604;28;20052;-58
2022/03/13 08:38:38;;;;;;;16.50;13.85;;;12.70;58.50;;;;;;5027674;28;20040;-58
2022/03/13 08:41:04;;;;;;;14.93;12.95;;;12.90;56.40;;;;;;5046342;28;20415;-58
2022/03/13 08:43:30;;;;;;;16.10;13.45;;;13.30;54.20;;;;;;5055209;28;20044;-58
2022/03/13 08:45:56;;;;;;;14.52;12.98;;;13.70;54.10;;;;;;5064375;28;20562;-58
2022/03/13 08:48:23;;;;;;;15.63;12.48;;;13.90;52.20;;;;;;5063916;28;20559;-58
2022/03/13 08:50:49;;;;;;;16.15;13.45;;;14.40;52.20;;;;;;5065444;28;20052;-58
2022/03/13 08:53:16;;;;;;;14.57;13.05;;;14.60;50.90;;;;;;5059680;28;20084;-58
2022/03/13 08:55:43;;;;;;;14.32;12.77;;;14.80;49.70;;;;;;5043872;28;20045;-58
2022/03/13 08:58:09;;;;;;;13.82;12.35;;;15.00;49.80;;;;;;5027450;28;20048;-58
2022/03/13 09:00:35;;;;;;;14.32;12.82;;;15.20;47.90;;;;;;5045609;28;20045;-58
2022/03/13 09:03:01;;;;;;;14.80;13.18;;;15.30;47.70;;;;;;5011821;28;20041;-58
2022/03/13 09:05:27;;;;;;;14.02;12.13;;;15.20;47.00;;;;;;5045234;28;20045;-58
2022/03/13 09:07:54;;;;;;;12.85;11.55;;;15.30;47.10;;;;;;5044322;28;20088;-58
2022/03/13 09:10:20;;;;;;;13.82;12.27;;;15.20;45.90;;;;;;4995237;28;20135;-58
2022/03/13 09:12:46;;;;;;;14.90;12.98;;;15.50;46.10;;;;;;5044508;28;20053;-58
2022/03/13 09:15:12;;;;;;;16.58;13.25;;;15.80;46.30;;;;;;5045740;28;20885;-58
2022/03/13 09:17:39;;;;;;;15.40;12.35;;;15.90;45.80;;;;;;5045097;28;20103;-58
2022/03/13 09:20:05;;;;;;;19.23;12.52;;;16.10;45.20;;;;;;5043646;28;20102;-58
2022/03/13 09:22:32;;;;;;;14.68;13.23;;;16.00;44.80;;;;;;5045009;28;20088;-58
2022/03/13 09:24:59;;;;;;;14.25;12.52;;;16.00;43.50;;;;;;5043832;28;20053;-58
2022/03/13 09:27:30;;;;;;;14.35;12.85;;;16.10;44.30;;;;;;5042953;28;20141;-58
2022/03/13 09:29:57;;;;;;;16.52;13.15;;;16.20;43.30;;;;;;5045185;28;20057;-58
2022/03/13 09:32:25;;;;;;;14.55;12.80;;;16.50;43.80;;;;;;5043127;28;20143;-58
2022/03/13 09:34:51;;;;;;;15.10;13.13;;;16.80;43.90;;;;;;5044262;28;20045;-57
2022/03/13 09:37:18;;;;;;;17.20;12.98;;;16.90;42.60;;;;;;5043238;28;20041;-58
2022/03/13 09:39:44;;;;;;;17.42;12.55;;;17.10;42.70;;;;;;5044407;28;20421;-58
2022/03/13 09:42:10;;;;;;;15.02;12.43;;;17.40;43.20;;;;;;5042776;28;20065;-58
2022/03/13 09:44:36;;;;;;;14.40;12.45;;;17.80;42.40;;;;;;5044383;28;20065;-57
2022/03/13 09:47:05;;;;;;;14.65;12.68;;;17.90;42.40;;;;;;5043986;28;20136;-57
2022/03/13 09:49:32;;;;;;;14.70;12.93;;;17.80;41.00;;;;;;5042061;28;20045;-58
2022/03/13 09:51:59;;;;;;;13.43;12.02;;;17.90;41.60;;;;;;5043487;28;20115;-58
2022/03/13 09:54:25;;;;;;;14.45;12.95;;;17.70;40.80;;;;;;5044819;28;20048;-57
2022/03/13 09:56:52;;;;;;;16.20;13.48;;;17.50;41.60;;;;;;5045118;28;20049;-58
2022/03/13 09:59:18;;;;;;;14.38;12.88;;;17.80;41.10;;;;;;5060344;28;20049;-58
2022/03/13 10:01:45;;;;;;;14.40;12.77;;;17.70;41.50;;;;;;5042744;28;20086;-58
2022/03/13 10:04:12;;;;;;;16.33;13.23;;;17.70;41.30;;;;;;5044585;28;20568;-57
2022/03/13 10:07:00;;;;;;;14.82;13.05;;;17.50;41.50;;;;;;5044137;28;20496;-58
2022/03/13 10:09:28;;;;;;;19.55;13.70;;;17.50;41.00;;;;;;5043470;28;20128;-58
2022/03/13 10:12:03;;;;;;;13.73;12.32;;;17.50;41.10;;;;;;5042310;28;20520;-57
2022/03/13 10:14:29;;;;;;;14.63;13.15;;;18.30;40.00;;;;;;5042655;28;20052;-53
2022/03/13 10:16:55;;;;;;;14.60;13.10;;;18.40;41.30;;;;;;5042380;28;20084;-55
2022/03/13 10:19:24;;;;;;;15.02;13.50;;;18.20;40.00;;;;;;5043526;28;20044;-54
2022/03/13 10:22:09;;;;;;;15.35;12.85;;;17.90;40.30;;;;;;5043961;28;20045;-53
2022/03/13 10:24:41;;;;;;;14.73;12.95;;;18.00;40.20;;;;;;5042660;28;20052;-54
2022/03/13 10:27:11;;;;;;;14.52;12.60;;;18.50;41.40;;;;;;5042504;28;20048;-53
2022/03/13 10:29:38;;;;;;;14.98;13.13;;;18.90;40.00;;;;;;5041568;28;20156;-54
2022/03/13 10:32:05;;;;;;;14.15;12.65;;;19.20;39.40;;;;;;5041800;28;20060;-54
2022/03/13 10:34:35;;;;;;;15.75;13.13;;;18.90;39.70;;;;;;5041999;28;20036;-53
2022/03/13 10:37:02;;;;;;;14.23;12.82;;;18.50;39.70;;;;;;5043437;28;20436;-54
2022/03/13 10:39:29;;;;;;;15.23;13.63;;;18.70;39.80;;;;;;5042156;28;20049;-58
2022/03/13 10:42:00;;;;;;;14.82;13.32;;;19.20;39.70;;;;;;5044618;28;20351;-58
2022/03/13 10:44:27;;;;;;;17.38;14.32;;;19.40;39.50;;;;;;5026154;28;20060;-58
2022/03/13 10:46:58;;;;;;;15.65;13.10;;;19.50;39.00;;;;;;5044026;28;20408;-58
2022/03/13 10:49:41;;;;;;;15.02;13.18;;;20.10;38.70;;;;;;5041576;28;20336;-58
2022/03/13 10:52:34;;;;;;;15.63;13.38;;;20.20;37.10;;;;;;5042929;28;20049;-58
2022/03/13 10:55:21;;;;;;;14.73;13.20;;;20.00;37.00;;;;;;5044578;28;20064;-58
2022/03/13 10:57:49;;;;;;;16.40;13.23;;;20.00;38.10;;;;;;5041910;28;20052;-58
2022/03/13 11:00:16;;;;;;;13.73;12.20;;;20.10;37.90;;;;;;5044593;28;20044;-59
2022/03/13 11:02:43;;;;;;;15.98;13.88;;;20.70;37.30;;;;;;5043743;28;20106;-58
2022/03/13 11:05:09;;;;;;;14.10;12.70;;;20.80;37.50;;;;;;5042897;28;20587;-58
2022/03/13 11:07:35;;;;;;;13.75;12.35;;;21.30;37.20;;;;;;5042038;28;20060;-58
2022/03/13 11:10:03;;;;;;;15.85;13.18;;;21.70;36.10;;;;;;5025991;28;20151;-58
2022/03/13 11:12:30;;;;;;;14.70;12.98;;;21.70;35.80;;;;;;5041155;28;20071;-57
2022/03/13 11:14:58;;;;;;;14.93;13.43;;;21.80;35.40;;;;;;5041632;28;20043;-58
2022/03/13 11:17:31;;;;;;;14.68;13.07;;;22.00;34.70;;;;;;5038200;28;20052;-58
2022/03/13 11:19:58;;;;;;;15.25;13.60;;;21.60;34.90;;;;;;5038852;28;20049;-58
2022/03/13 11:22:27;;;;;;;15.10;13.60;;;22.10;35.20;;;;;;5040591;28;20056;-58
2022/03/13 11:24:56;;;;;;;15.48;13.52;;;22.30;35.10;;;;;;5041251;28;20052;-58
2022/03/13 11:27:25;;;;;;;15.32;12.35;;;22.80;35.00;;;;;;5040567;28;20438;-58
2022/03/13 11:29:53;;;;;;;14.18;12.77;;;23.00;32.90;;;;;;5038383;28;20126;-57
2022/03/13 11:32:40;;;;;;;14.85;13.25;;;23.00;33.60;;;;;;5042212;28;20144;-57
2022/03/13 11:35:18;;;;;;;14.93;13.38;;;22.70;31.20;;;;;;5024680;28;20051;-58
2022/03/13 11:37:46;;;;;;;17.13;12.60;;;22.40;32.70;;;;;;5058095;28;20045;-58
2022/03/13 11:40:16;;;;;;;15.23;13.48;;;22.50;32.50;;;;;;5042979;28;20045;-57
2022/03/13 11:42:54;;;;;;;14.57;13.23;;;22.50;32.80;;;;;;5042680;28;20204;-57
2022/03/13 11:45:28;;;;;;;13.98;12.57;;;22.00;32.30;;;;;;5042954;28;20530;-57
2022/03/13 11:48:19;;;;;;;15.25;13.75;;;22.10;33.00;;;;;;5040954;28;20049;-57
2022/03/13 11:51:05;;;;;;;16.05;14.45;;;22.40;33.10;;;;;;5042298;28;20102;-57
2022/03/13 11:53:44;;;;;;;15.40;13.43;;;22.20;32.60;;;;;;5027423;28;20107;-57
2022/03/13 11:56:13;;;;;;;15.15;13.55;;;22.20;33.80;;;;;;5039811;28;20503;-57
2022/03/13 11:58:46;;;;;;;14.63;13.20;;;21.80;33.70;;;;;;5044159;28;20120;-57
2022/03/13 12:01:18;;;;;;;15.80;14.10;;;22.00;33.70;;;;;;5056727;28;20048;-57
2022/03/13 12:04:07;;;;;;;16.02;13.70;;;21.90;33.40;;;;;;5008350;28;20061;-57
2022/03/13 12:06:55;;;;;;;13.45;11.98;;;22.20;32.50;;;;;;5058292;28;20578;-57
2022/03/13 12:09:31;;;;;;;18.77;13.27;;;22.20;33.00;;;;;;5046450;28;20049;-57
2022/03/13 12:12:01;;;;;;;16.83;13.55;;;22.10;33.10;;;;;;5045445;28;20103;-57
2022/03/13 12:15:01;;;;;;;15.18;13.60;;;22.30;33.10;;;;;;5046644;28;20127;-57
2022/03/13 12:17:42;;;;;;;15.68;14.07;;;22.10;33.80;;;;;;5046042;28;20044;-57
2022/03/13 12:20:24;;;;;;;16.10;14.25;;;22.70;34.40;;;;;;5044124;28;20052;-60
2022/03/13 12:22:56;;;;;;;15.70;13.82;;;22.50;32.30;;;;;;5045991;28;20053;-57
2022/03/13 12:25:25;;;;;;;16.15;14.02;;;22.80;33.10;;;;;;5046015;28;20044;-57
2022/03/13 12:27:52;;;;;;;15.35;13.57;;;23.20;33.20;;;;;;5044757;28;20044;-57
2022/03/13 12:30:29;;;;;;;15.80;14.10;;;22.80;33.40;;;;;;5045059;28;20510;-57
2022/03/13 12:33:03;;;;;;;15.13;13.50;;;22.80;33.10;;;;;;5045469;28;20519;-57
2022/03/13 12:35:29;;;;;;;15.60;13.98;;;22.50;33.10;;;;;;5046421;28;20040;-57
2022/03/13 12:38:00;;;;;;;15.23;13.60;;;22.30;34.40;;;;;;5027948;28;20052;-57
2022/03/13 12:40:27;;;;;;;15.25;13.65;;;22.10;34.90;;;;;;5045619;28;20564;-57
2022/03/13 12:42:54;;;;;;;15.60;14.00;;;22.10;33.70;;;;;;5045607;28;20155;-57